Airfield :
LOGIN :

Register | Disclaimer

   EN    FR    IT 

 










Legend :    VFR   Marginal VFR   IFR   Intensive IFR   Very Intensive IFR
Visi :
Ceiling :
>= 8 km
>= 3000ft
5 to 8 km
1000 to 3000 ft
1500m to 5 km
500 to 1000 ft
800 to 1500m
200 to 500 ft
< 800m
< 200 ft
Symbols :   Thunderstorms  Fog  Heavy snow  Heavy precipitations  Wind > 20 kt
SIGMETs :     Misc.  Thunderstorms  Icing  Turbulence  Mountain Waves  Volcanic Ashes






- Airport Elevation : 236 ft
- IATA code : MMX


ESMS - Malmö Sturup

CURRENT METAR :
  • 162250Z 33003KT 9999 OVC014 M06/M07 Q1018 R17/710195

EXPIRED METARs :
  • 162220Z VRB03KT 9999 SCT014 M06/M07 Q1018 R17/710195
  • 162150Z 04004KT 9999 FEW005 BKN008 M05/M06 Q1018 R17/710195
  • 162120Z 06004KT 9999 BKN009 OVC011 M05/M07 Q1018 R17/710195
  • 162050Z 36003KT CAVOK M06/M08 Q1018 R17/710195

TAF AMD TAF ESMS
Valid from the 16 at 18:00 until the 17 at 18:00 UTC


162145Z 1618/1718 36006KT 9999 FEW009 BKN015
TEMPO 1621/1707 BKN009
PROB40 1707/1718 2500 SHSN VV008



MET'MAP, your aeronautical weather chart ! - Copyright ORBIFLY December 2007 - Disclaimer

ORBIFLY MET'MAP TEAM :

Programming & Development : Alexandra Zaïnal
Concept & original design : Baudouin d'Aumeries
Assistance for programming : Marc-Olivier Méhu
Technical & hardware support : Manuel Goepfert

Contact : metmap@orbifly.com




SOURCES & CREDITS :

   NOAA